Time;durP1;ratioP1;P1;durP2;ratioP2;P2;SDS_P1;SDS_P2;PMS_P1;PMS_P2;Temp;Humidity;BMP_temperature;BMP_pressure;BME280_temperature;BME280_humidity;BME280_pressure;Samples;Min_cycle;Max_cycle;Signal;HPM_P1;HPM_P2
2022/08/16 00:02:23;;;;;;;;;;;;;;;;;;5018049;28;19913;-31
2022/08/16 00:04:49;;;;;;;;;;;;;;;;;;5017329;28;20284;-31
2022/08/16 00:07:15;;;;;;;;;;;;;;;;;;5017968;28;19914;-32
2022/08/16 00:09:41;;;;;;;;;;;;;;;;;;5016367;28;19914;-31
2022/08/16 00:12:07;;;;;;;;;;;;;;;;;;5017348;28;19910;-32
2022/08/16 00:14:32;;;;;;;;;;;;;;;;;;5017829;28;19913;-32
2022/08/16 00:16:58;;;;;;;;;;;;;;;;;;5017276;28;20363;-33
2022/08/16 00:19:24;;;;;;;;;;;;;;;;;;5015639;28;19921;-33
2022/08/16 00:21:50;;;;;;;;;;;;;;;;;;5017419;28;19967;-33
2022/08/16 00:24:16;;;;;;;;;;;;;;;;;;5017088;28;19913;-32
2022/08/16 00:26:42;;;;;;;;;;;;;;;;;;5017669;28;19917;-31
2022/08/16 00:29:09;;;;;;;;;;;;;;;;;;5016006;28;20271;-31
2022/08/16 00:31:35;;;;;;;;;;;;;;;;;;5016983;28;20359;-31
2022/08/16 00:34:01;;;;;;;;;;;;;;;;;;5016866;28;20344;-32
2022/08/16 00:36:27;;;;;;;;;;;;;;;;;;5016893;28;19979;-32
2022/08/16 00:38:53;;;;;;;;;;;;;;;;;;5016857;28;19910;-32
2022/08/16 00:41:19;;;;;;;;;;;;;;;;;;5017102;28;19914;-33
2022/08/16 00:43:45;;;;;;;;;;;;;;;;;;5016761;28;19910;-32
2022/08/16 00:46:11;;;;;;;;;;;;;;;;;;5016783;28;19909;-32
2022/08/16 00:48:37;;;;;;;;;;;;;;;;;;5016546;28;19921;-32
2022/08/16 00:51:03;;;;;;;;;;;;;;;;;;5016652;28;19971;-32
2022/08/16 00:53:29;;;;;;;;;;;;;;;;;;5016482;28;19913;-31
2022/08/16 00:55:55;;;;;;;;;;;;;;;;;;5017666;28;19920;-32
2022/08/16 00:58:20;;;;;;;;;;;;;;;;;;5016508;28;19913;-34
2022/08/16 01:00:46;;;;;;;;;;;;;;;;;;5016469;28;19917;-37
2022/08/16 01:03:13;;;;;;;;;;;;;;;;;;5016393;28;19922;-32
2022/08/16 01:05:39;;;;;;;;;;;;;;;;;;5016686;28;19921;-32
2022/08/16 01:08:05;;;;;;;;;;;;;;;;;;5016242;28;19913;-33
2022/08/16 01:10:31;;;;;;;;;;;;;;;;;;5016270;28;20315;-32
2022/08/16 01:12:56;;;;;;;;;;;;;;;;;;5016168;28;19996;-34
2022/08/16 01:15:22;;;;;;;;;;;;;;;;;;5016213;28;20297;-32
2022/08/16 01:17:48;;;;;;;;;;;;;;;;;;5016143;28;19924;-32
2022/08/16 01:20:14;;;;;;;;;;;;;;;;;;5016433;28;19909;-34
2022/08/16 01:22:40;;;;;;;;;;;;;;;;;;5015982;28;19971;-34
2022/08/16 01:25:07;;;;;;;;;;;;;;;;;;5016047;28;19916;-32
2022/08/16 01:27:32;;;;;;;;;;;;;;;;;;5016543;28;19921;-32
2022/08/16 01:29:58;;;;;;;;;;;;;;;;;;5016441;28;19913;-33
2022/08/16 01:32:25;;;;;;;;;;;;;;;;;;5014925;28;19932;-33
2022/08/16 01:34:51;;;;;;;;;;;;;;;;;;5016144;28;19917;-32
2022/08/16 01:37:17;;;;;;;;;;;;;;;;;;5015908;28;20272;-32
2022/08/16 01:39:43;;;;;;;;;;;;;;;;;;5014855;28;20256;-32
2022/08/16 01:42:09;;;;;;;;;;;;;;;;;;5016291;28;19916;-33
2022/08/16 01:44:35;;;;;;;;;;;;;;;;;;5015736;28;19937;-32
2022/08/16 01:47:01;;;;;;;;;;;;;;;;;;5016212;28;20275;-31
2022/08/16 01:49:27;;;;;;;;;;;;;;;;;;5015822;28;20004;-31
2022/08/16 01:51:53;;;;;;;;;;;;;;;;;;5015542;28;20009;-35
2022/08/16 01:54:20;;;;;;;;;;;;;;;;;;5015574;28;19914;-32
2022/08/16 01:56:46;;;;;;;;;;;;;;;;;;5015613;28;20379;-32
2022/08/16 01:59:11;;;;;;;;;;;;;;;;;;5016081;28;20295;-31
2022/08/16 02:01:38;;;;;;;;;;;;;;;;;;5015542;28;19909;-31
2022/08/16 02:04:04;;;;;;;;;;;;;;;;;;5015289;28;19921;-31
2022/08/16 02:06:30;;;;;;;;;;;;;;;;;;5015424;28;19973;-32
2022/08/16 02:08:56;;;;;;;;;;;;;;;;;;5015367;28;20324;-31
2022/08/16 02:11:22;;;;;;;;;;;;;;;;;;5015361;28;19917;-33
2022/08/16 02:13:48;;;;;;;;;;;;;;;;;;5015290;28;19914;-31
2022/08/16 02:16:14;;;;;;;;;;;;;;;;;;5015399;28;19909;-32
2022/08/16 02:18:41;;;;;;;;;;;;;;;;;;5015586;28;20256;-33
2022/08/16 02:21:07;;;;;;;;;;;;;;;;;;5015574;28;19910;-32
2022/08/16 02:23:33;;;;;;;;;;;;;;;;;;5015184;28;20307;-32
2022/08/16 02:25:59;;;;;;;;;;;;;;;;;;5015262;28;19909;-33
2022/08/16 02:28:25;;;;;;;;;;;;;;;;;;5015120;28;19925;-32
2022/08/16 02:30:51;;;;;;;;;;;;;;;;;;5015186;28;20000;-32
2022/08/16 02:33:17;;;;;;;;;;;;;;;;;;5014176;28;19967;-32
2022/08/16 02:35:43;;;;;;;;;;;;;;;;;;5015463;28;19909;-32
2022/08/16 02:38:09;;;;;;;;;;;;;;;;;;5015130;28;19920;-34
2022/08/16 02:40:35;;;;;;;;;;;;;;;;;;5015786;28;20345;-33
2022/08/16 02:43:01;;;;;;;;;;;;;;;;;;5016713;28;19956;-33
2022/08/16 02:45:27;;;;;;;;;;;;;;;;;;5019788;28;19920;-32
2022/08/16 02:47:53;;;;;;;;;;;;;;;;;;5019194;28;20003;-31
2022/08/16 02:50:19;;;;;;;;;;;;;;;;;;5019390;28;19952;-32
2022/08/16 02:52:45;;;;;;;;;;;;;;;;;;5018756;28;20051;-36
2022/08/16 02:55:11;;;;;;;;;;;;;;;;;;5018799;28;19992;-31
2022/08/16 02:57:37;;;;;;;;;;;;;;;;;;5019354;28;19937;-32
2022/08/16 03:00:06;;;;;;;;;;;;;;;;;;5018721;28;20363;-31
2022/08/16 03:02:34;;;;;;;;;;;;;;;;;;5018719;28;20399;-33
2022/08/16 03:05:00;;;;;;;;;;;;;;;;;;5018635;28;19913;-33
2022/08/16 03:07:26;;;;;;;;;;;;;;;;;;5018533;28;19921;-31
2022/08/16 03:09:52;;;;;;;;;;;;;;;;;;5019057;28;19992;-36
2022/08/16 03:12:18;;;;;;;;;;;;;;;;;;5018488;28;20292;-31
2022/08/16 03:14:45;;;;;;;;;;;;;;;;;;5018478;28;19913;-33
2022/08/16 03:17:11;;;;;;;;;;;;;;;;;;5018411;28;19920;-33
2022/08/16 03:19:37;;;;;;;;;;;;;;;;;;5018349;28;19909;-31
2022/08/16 03:22:03;;;;;;;;;;;;;;;;;;5018596;28;19909;-32
2022/08/16 03:24:29;;;;;;;;;;;;;;;;;;5018251;28;19914;-32
2022/08/16 03:26:55;;;;;;;;;;;;;;;;;;5018584;28;19969;-33
2022/08/16 03:29:21;;;;;;;;;;;;;;;;;;5018118;28;20352;-32
2022/08/16 03:31:47;;;;;;;;;;;;;;;;;;5017144;28;19913;-32
2022/08/16 03:34:13;;;;;;;;;;;;;;;;;;5018091;28;20340;-32
2022/08/16 03:36:39;;;;;;;;;;;;;;;;;;5018358;28;19909;-34
2022/08/16 03:39:05;;;;;;;;;;;;;;;;;;5018284;28;19914;-31
2022/08/16 03:41:31;;;;;;;;;;;;;;;;;;5018534;28;19999;-36
2022/08/16 03:43:57;;;;;;;;;;;;;;;;;;5017810;28;19914;-32
2022/08/16 03:46:23;;;;;;;;;;;;;;;;;;5018105;28;19914;-31
2022/08/16 03:48:49;;;;;;;;;;;;;;;;;;5017947;28;19917;-32
2022/08/16 03:51:15;;;;;;;;;;;;;;;;;;5017659;28;19920;-32
2022/08/16 03:53:41;;;;;;;;;;;;;;;;;;5017099;28;19925;-34
2022/08/16 03:56:07;;;;;;;;;;;;;;;;;;5017227;28;20333;-35
2022/08/16 03:58:33;;;;;;;;;;;;;;;;;;5017533;28;19924;-31
2022/08/16 04:00:59;;;;;;;;;;;;;;;;;;5017765;28;19910;-31
2022/08/16 04:03:25;;;;;;;;;;;;;;;;;;5017480;28;19932;-32
2022/08/16 04:05:51;;;;;;;;;;;;;;;;;;5017548;28;20259;-32
2022/08/16 04:08:20;;;;;;;;;;;;;;;;;;5017659;28;19914;-31
2022/08/16 04:10:46;;;;;;;;;;;;;;;;;;5017190;28;19915;-36
2022/08/16 04:13:12;;;;;;;;;;;;;;;;;;5017185;28;20016;-33
2022/08/16 04:15:38;;;;;;;;;;;;;;;;;;5017265;28;19941;-36
2022/08/16 04:18:04;;;;;;;;;;;;;;;;;;5017674;28;19914;-32
2022/08/16 04:20:30;;;;;;;;;;;;;;;;;;5017396;28;20012;-32
2022/08/16 04:22:56;;;;;;;;;;;;;;;;;;5016529;28;19975;-32
2022/08/16 04:25:22;;;;;;;;;;;;;;;;;;5016945;28;19917;-33
2022/08/16 04:27:48;;;;;;;;;;;;;;;;;;5017096;28;19988;-32
2022/08/16 04:30:14;;;;;;;;;;;;;;;;;;5016714;28;19914;-33
2022/08/16 04:32:40;;;;;;;;;;;;;;;;;;5016831;28;20221;-32
2022/08/16 04:35:06;;;;;;;;;;;;;;;;;;5016788;28;19921;-33
2022/08/16 04:37:32;;;;;;;;;;;;;;;;;;5015693;28;19980;-36
2022/08/16 04:39:58;;;;;;;;;;;;;;;;;;5016958;28;19925;-31
2022/08/16 04:42:24;;;;;;;;;;;;;;;;;;5016540;28;19924;-34
2022/08/16 04:44:50;;;;;;;;;;;;;;;;;;5016571;28;19913;-33
2022/08/16 04:47:16;;;;;;;;;;;;;;;;;;5016526;28;19909;-33
2022/08/16 04:49:43;;;;;;;;;;;;;;;;;;5016532;28;19918;-32
2022/08/16 04:52:09;;;;;;;;;;;;;;;;;;5016289;28;19949;-32
2022/08/16 04:54:35;;;;;;;;;;;;;;;;;;5016558;28;19924;-33
2022/08/16 04:57:01;;;;;;;;;;;;;;;;;;5015609;28;20284;-32
2022/08/16 04:59:27;;;;;;;;;;;;;;;;;;5016493;28;19914;-35
2022/08/16 05:01:55;;;;;;;;;;;;;;;;;;5016153;28;19913;-33
2022/08/16 05:04:21;;;;;;;;;;;;;;;;;;5015950;28;19925;-32
2022/08/16 05:06:47;;;;;;;;;;;;;;;;;;5016338;28;19920;-32
2022/08/16 05:09:13;;;;;;;;;;;;;;;;;;5015982;28;19913;-33
2022/08/16 05:11:39;;;;;;;;;;;;;;;;;;5015114;28;20268;-33
2022/08/16 05:14:05;;;;;;;;;;;;;;;;;;5016022;28;20284;-32
2022/08/16 05:16:32;;;;;;;;;;;;;;;;;;5016019;28;19918;-32
2022/08/16 05:18:58;;;;;;;;;;;;;;;;;;5015870;28;19923;-31
2022/08/16 05:21:23;;;;;;;;;;;;;;;;;;5016365;28;20040;-32
2022/08/16 05:23:50;;;;;;;;;;;;;;;;;;5016041;28;19941;-31
2022/08/16 05:26:15;;;;;;;;;;;;;;;;;;5016039;28;19921;-33
2022/08/16 05:28:41;;;;;;;;;;;;;;;;;;5015733;28;19927;-33
2022/08/16 05:31:07;;;;;;;;;;;;;;;;;;5015772;28;19909;-35
2022/08/16 05:33:33;;;;;;;;;;;;;;;;;;5015818;28;20004;-33
2022/08/16 05:35:59;;;;;;;;;;;;;;;;;;5015848;28;20017;-32
2022/08/16 05:38:28;;;;;;;;;;;;;;;;;;5014584;28;20345;-33
2022/08/16 05:40:54;;;;;;;;;;;;;;;;;;5016018;28;19945;-33
2022/08/16 05:43:20;;;;;;;;;;;;;;;;;;5015374;28;19918;-33
2022/08/16 05:45:46;;;;;;;;;;;;;;;;;;5015511;28;20367;-33
2022/08/16 05:48:12;;;;;;;;;;;;;;;;;;5016029;28;19925;-32
2022/08/16 05:50:38;;;;;;;;;;;;;;;;;;5015387;28;20300;-31
2022/08/16 05:53:04;;;;;;;;;;;;;;;;;;5015596;28;19914;-32
2022/08/16 05:55:30;;;;;;;;;;;;;;;;;;5015546;28;20357;-33
2022/08/16 05:57:56;;;;;;;;;;;;;;;;;;5014332;28;19956;-33
2022/08/16 06:00:23;;;;;;;;;;;;;;;;;;5015278;28;19948;-35
2022/08/16 06:02:49;;;;;;;;;;;;;;;;;;5014969;28;19957;-31
2022/08/16 06:05:15;;;;;;;;;;;;;;;;;;5015536;28;19906;-32
2022/08/16 06:07:41;;;;;;;;;;;;;;;;;;5015421;28;19917;-32
2022/08/16 06:10:07;;;;;;;;;;;;;;;;;;5015298;28;19979;-34
2022/08/16 06:12:33;;;;;;;;;;;;;;;;;;5015342;28;20337;-33
2022/08/16 06:15:01;;;;;;;;;;;;;;;;;;5015088;28;19910;-33
2022/08/16 06:17:27;;;;;;;;;;;;;;;;;;5017912;28;19913;-32
2022/08/16 06:19:53;;;;;;;;;;;;;;;;;;5021538;28;19914;-32
2022/08/16 06:22:19;;;;;;;;;;;;;;;;;;5021540;28;19913;-32
2022/08/16 06:24:45;;;;;;;;;;;;;;;;;;5022128;28;19992;-31
2022/08/16 06:27:11;;;;;;;;;;;;;;;;;;5021581;28;19936;-34
2022/08/16 06:29:37;;;;;;;;;;;;;;;;;;5021438;28;19917;-34
2022/08/16 06:32:03;;;;;;;;;;;;;;;;;;5021450;28;20012;-34
2022/08/16 06:34:29;;;;;;;;;;;;;;;;;;5021492;28;19953;-34
2022/08/16 06:36:55;;;;;;;;;;;;;;;;;;5020493;28;19948;-32
2022/08/16 06:39:21;;;;;;;;;;;;;;;;;;5021525;28;19920;-34
2022/08/16 06:41:47;;;;;;;;;;;;;;;;;;5021308;28;19914;-34
2022/08/16 06:44:13;;;;;;;;;;;;;;;;;;5021415;28;20305;-35
2022/08/16 06:46:39;;;;;;;;;;;;;;;;;;5021412;28;19913;-32
2022/08/16 06:49:05;;;;;;;;;;;;;;;;;;5021228;28;19917;-32
2022/08/16 06:51:31;;;;;;;;;;;;;;;;;;5021322;28;19917;-32
2022/08/16 06:53:57;;;;;;;;;;;;;;;;;;5021238;28;19916;-32
2022/08/16 06:56:23;;;;;;;;;;;;;;;;;;5021287;28;19921;-32
2022/08/16 06:58:50;;;;;;;;;;;;;;;;;;5020431;28;19910;-34
2022/08/16 07:01:16;;;;;;;;;;;;;;;;;;5021272;28;19967;-35
2022/08/16 07:03:42;;;;;;;;;;;;;;;;;;5021036;28;19961;-34
2022/08/16 07:06:08;;;;;;;;;;;;;;;;;;5021246;28;19917;-33
2022/08/16 07:08:34;;;;;;;;;;;;;;;;;;5021079;28;20418;-34
2022/08/16 07:11:00;;;;;;;;;;;;;;;;;;5021675;28;19909;-32
2022/08/16 07:13:26;;;;;;;;;;;;;;;;;;5021021;28;20027;-32
2022/08/16 07:15:52;;;;;;;;;;;;;;;;;;5021193;28;20061;-32
2022/08/16 07:18:21;;;;;;;;;;;;;;;;;;5020993;28;19914;-34
2022/08/16 07:20:48;;;;;;;;;;;;;;;;;;5020062;28;19918;-33
2022/08/16 07:23:14;;;;;;;;;;;;;;;;;;5020921;28;20256;-38
2022/08/16 07:25:40;;;;;;;;;;;;;;;;;;5021049;28;19967;-32
2022/08/16 07:28:06;;;;;;;;;;;;;;;;;;5020887;28;19913;-32
2022/08/16 07:30:32;;;;;;;;;;;;;;;;;;5017826;28;20349;-31
2022/08/16 07:32:58;;;;;;;;;;;;;;;;;;5017942;28;19913;-32
2022/08/16 07:35:24;;;;;;;;;;;;;;;;;;5017772;28;19989;-32
2022/08/16 07:37:50;;;;;;;;;;;;;;;;;;5017649;28;19913;-33
2022/08/16 07:40:16;;;;;;;;;;;;;;;;;;5017676;28;19910;-34
2022/08/16 07:42:42;;;;;;;;;;;;;;;;;;5017558;28;19914;-32
2022/08/16 07:45:08;;;;;;;;;;;;;;;;;;5017686;28;19979;-33
2022/08/16 07:47:34;;;;;;;;;;;;;;;;;;5017591;28;19984;-34
2022/08/16 07:50:00;;;;;;;;;;;;;;;;;;5017539;28;19913;-32
2022/08/16 07:52:26;;;;;;;;;;;;;;;;;;5017366;28;19913;-31
2022/08/16 07:54:52;;;;;;;;;;;;;;;;;;5016378;28;20340;-33
2022/08/16 07:57:18;;;;;;;;;;;;;;;;;;5017867;28;19910;-32
2022/08/16 07:59:44;;;;;;;;;;;;;;;;;;5017274;28;20353;-33
2022/08/16 08:02:10;;;;;;;;;;;;;;;;;;5017245;28;20007;-31
2022/08/16 08:04:37;;;;;;;;;;;;;;;;;;5017135;28;20226;-33
2022/08/16 08:07:03;;;;;;;;;;;;;;;;;;5017775;28;19920;-32
2022/08/16 08:09:29;;;;;;;;;;;;;;;;;;5017102;28;20252;-31
2022/08/16 08:11:55;;;;;;;;;;;;;;;;;;5016127;28;19917;-31
2022/08/16 08:14:21;;;;;;;;;;;;;;;;;;5017091;28;19926;-31
2022/08/16 08:16:47;;;;;;;;;;;;;;;;;;5016989;28;19949;-31
2022/08/16 08:19:13;;;;;;;;;;;;;;;;;;5016939;28;19917;-32
2022/08/16 08:21:39;;;;;;;;;;;;;;;;;;5015946;28;20368;-33
2022/08/16 08:24:06;;;;;;;;;;;;;;;;;;5016743;28;20390;-31
2022/08/16 08:26:32;;;;;;;;;;;;;;;;;;5017105;28;19975;-32
2022/08/16 08:28:58;;;;;;;;;;;;;;;;;;5016945;28;20336;-32
2022/08/16 08:31:24;;;;;;;;;;;;;;;;;;5016622;28;19913;-33
2022/08/16 08:33:55;;;;;;;;;;;;;;;;;;5016603;28;19909;-32
2022/08/16 08:36:21;;;;;;;;;;;;;;;;;;5015686;28;20032;-34
2022/08/16 08:38:48;;;;;;;;;;;;;;;;;;5017135;28;19956;-34
2022/08/16 08:41:14;;;;;;;;;;;;;;;;;;5016072;28;19913;-32
2022/08/16 08:43:41;;;;;;;;;;;;;;;;;;5017001;28;20006;-31
2022/08/16 08:46:07;;;;;;;;;;;;;;;;;;5016392;28;19917;-33
2022/08/16 08:48:35;;;;;;;;;;;;;;;;;;5016311;28;19921;-32
2022/08/16 08:51:01;;;;;;;;;;;;;;;;;;5016322;28;19913;-32
2022/08/16 08:53:27;;;;;;;;;;;;;;;;;;5016197;28;19922;-31
2022/08/16 08:55:53;;;;;;;;;;;;;;;;;;5016282;28;20399;-31
2022/08/16 08:58:19;;;;;;;;;;;;;;;;;;5016487;28;19968;-32
2022/08/16 09:00:45;;;;;;;;;;;;;;;;;;5016221;28;19917;-32
2022/08/16 09:03:13;;;;;;;;;;;;;;;;;;5015854;28;20299;-32
2022/08/16 09:05:39;;;;;;;;;;;;;;;;;;5016727;28;20240;-33
2022/08/16 09:08:06;;;;;;;;;;;;;;;;;;5016065;28;19967;-31
2022/08/16 09:10:32;;;;;;;;;;;;;;;;;;5016304;28;19917;-35
2022/08/16 09:12:58;;;;;;;;;;;;;;;;;;5015974;28;20297;-33
2022/08/16 09:15:25;;;;;;;;;;;;;;;;;;5016555;28;20060;-32
2022/08/16 09:17:54;;;;;;;;;;;;;;;;;;5016152;28;19943;-32
2022/08/16 09:20:20;;;;;;;;;;;;;;;;;;5014891;28;19920;-32
2022/08/16 09:22:46;;;;;;;;;;;;;;;;;;5015683;28;19971;-34
2022/08/16 09:25:12;;;;;;;;;;;;;;;;;;5016015;28;19910;-33
2022/08/16 09:27:38;;;;;;;;;;;;;;;;;;5015660;28;20008;-32
2022/08/16 09:30:04;;;;;;;;;;;;;;;;;;5015624;28;19948;-33
2022/08/16 09:32:30;;;;;;;;;;;;;;;;;;5014536;28;19913;-31
2022/08/16 09:34:56;;;;;;;;;;;;;;;;;;5015514;28;19917;-33
2022/08/16 09:37:22;;;;;;;;;;;;;;;;;;5015844;28;19921;-31
2022/08/16 09:39:48;;;;;;;;;;;;;;;;;;5016089;28;19969;-32
2022/08/16 09:42:14;;;;;;;;;;;;;;;;;;5015647;28;20301;-35
2022/08/16 09:44:40;;;;;;;;;;;;;;;;;;5015912;28;19913;-33
2022/08/16 09:47:06;;;;;;;;;;;;;;;;;;5015661;28;19921;-33
2022/08/16 09:49:32;;;;;;;;;;;;;;;;;;5015829;28;19928;-32
2022/08/16 09:51:58;;;;;;;;;;;;;;;;;;5014693;28;20005;-31
2022/08/16 09:54:24;;;;;;;;;;;;;;;;;;5015253;28;19996;-32
2022/08/16 09:56:50;;;;;;;;;;;;;;;;;;5015487;28;19941;-30
2022/08/16 09:59:16;;;;;;;;;;;;;;;;;;5014352;28;19988;-33
2022/08/16 10:01:43;;;;;;;;;;;;;;;;;;5015701;28;20363;-32
2022/08/16 10:04:09;;;;;;;;;;;;;;;;;;5015124;28;19968;-32
2022/08/16 10:06:36;;;;;;;;;;;;;;;;;;5015220;28;19921;-31
2022/08/16 10:09:02;;;;;;;;;;;;;;;;;;5015105;28;19922;-32
2022/08/16 10:14:13;;;;;;;;;;;;;;;;;;5015396;28;19920;-31
2022/08/16 10:16:39;;;;;;;;;;;;;;;;;;5015404;28;20214;-33
2022/08/16 10:19:05;;;;;;;;;;;;;;;;;;5015123;28;19914;-33
2022/08/16 10:21:31;;;;;;;;;;;;;;;;;;5015114;28;20008;-34
2022/08/16 10:23:57;;;;;;;;;;;;;;;;;;5015290;28;19979;-33
2022/08/16 10:26:23;;;;;;;;;;;;;;;;;;5015187;28;19957;-32
2022/08/16 10:28:50;;;;;;;;;;;;;;;;;;5015155;28;20329;-34
2022/08/16 10:31:16;;;;;;;;;;;;;;;;;;5014009;28;20376;-32
2022/08/16 10:33:42;;;;;;;;;;;;;;;;;;5013944;28;19964;-30
2022/08/16 10:36:08;;;;;;;;;;;;;;;;;;5014929;28;19921;-30
2022/08/16 10:38:34;;;;;;;;;;;;;;;;;;5015144;28;19914;-32
2022/08/16 10:41:00;;;;;;;;;;;;;;;;;;5014849;28;20048;-30
2022/08/16 10:43:26;;;;;;;;;;;;;;;;;;5014615;28;19914;-31
2022/08/16 10:45:52;;;;;;;;;;;;;;;;;;5015536;28;19910;-31
2022/08/16 10:48:18;;;;;;;;;;;;;;;;;;5014865;28;19921;-30
2022/08/16 10:50:44;;;;;;;;;;;;;;;;;;5014968;28;19913;-31
2022/08/16 10:53:10;;;;;;;;;;;;;;;;;;5014740;28;19960;-31
2022/08/16 10:55:36;;;;;;;;;;;;;;;;;;5015143;28;20007;-32
2022/08/16 10:58:02;;;;;;;;;;;;;;;;;;5013965;28;20400;-36
2022/08/16 11:00:28;;;;;;;;;;;;;;;;;;5015426;28;19997;-31
2022/08/16 11:02:54;;;;;;;;;;;;;;;;;;5014526;28;20315;-31
2022/08/16 11:05:20;;;;;;;;;;;;;;;;;;5018990;28;19914;-33
2022/08/16 11:07:46;;;;;;;;;;;;;;;;;;5018793;28;19913;-33
2022/08/16 11:10:12;;;;;;;;;;;;;;;;;;5018368;28;19921;-30
2022/08/16 11:12:39;;;;;;;;;;;;;;;;;;5018762;28;19914;-32
2022/08/16 11:15:05;;;;;;;;;;;;;;;;;;5018308;28;19956;-31
2022/08/16 11:17:31;;;;;;;;;;;;;;;;;;5018623;28;19913;-32
2022/08/16 11:19:57;;;;;;;;;;;;;;;;;;5018250;28;19909;-32
2022/08/16 11:22:23;;;;;;;;;;;;;;;;;;5018124;28;20014;-30
2022/08/16 11:24:49;;;;;;;;;;;;;;;;;;5018141;28;19984;-35
2022/08/16 11:27:15;;;;;;;;;;;;;;;;;;5018133;28;19913;-30
2022/08/16 11:29:41;;;;;;;;;;;;;;;;;;5018293;28;19940;-32
2022/08/16 11:32:07;;;;;;;;;;;;;;;;;;5018012;28;19924;-31
2022/08/16 11:34:33;;;;;;;;;;;;;;;;;;5018268;28;19913;-31
2022/08/16 11:36:59;;;;;;;;;;;;;;;;;;5016980;28;19924;-33
2022/08/16 11:39:25;;;;;;;;;;;;;;;;;;5017453;28;20236;-35
2022/08/16 11:41:51;;;;;;;;;;;;;;;;;;5018336;28;19972;-31
2022/08/16 11:44:17;;;;;;;;;;;;;;;;;;5016927;28;19978;-31
2022/08/16 11:46:43;;;;;;;;;;;;;;;;;;5018042;28;20340;-31
2022/08/16 11:49:09;;;;;;;;;;;;;;;;;;5018064;28;20016;-32
2022/08/16 11:51:35;;;;;;;;;;;;;;;;;;5017707;28;19914;-32
2022/08/16 11:54:01;;;;;;;;;;;;;;;;;;5017580;28;19913;-34
2022/08/16 11:56:27;;;;;;;;;;;;;;;;;;5017934;28;19920;-33
2022/08/16 11:58:53;;;;;;;;;;;;;;;;;;5017642;28;19913;-32
2022/08/16 12:01:19;;;;;;;;;;;;;;;;;;5017816;28;19910;-31
2022/08/16 12:03:45;;;;;;;;;;;;;;;;;;5017080;28;20008;-32
2022/08/16 12:06:12;;;;;;;;;;;;;;;;;;5017579;28;19924;-33
2022/08/16 12:08:39;;;;;;;;;;;;;;;;;;5016550;28;21288;-33
2022/08/16 12:11:05;;;;;;;;;;;;;;;;;;5017819;28;19952;-31
2022/08/16 12:13:31;;;;;;;;;;;;;;;;;;5017440;28;20224;-30
2022/08/16 12:15:57;;;;;;;;;;;;;;;;;;5016633;28;19916;-32
2022/08/16 12:18:23;;;;;;;;;;;;;;;;;;5017186;28;19917;-30
2022/08/16 12:20:49;;;;;;;;;;;;;;;;;;5016160;28;20317;-33
2022/08/16 12:23:15;;;;;;;;;;;;;;;;;;5017553;28;19971;-31
2022/08/16 12:25:41;;;;;;;;;;;;;;;;;;5016126;28;19914;-35
2022/08/16 12:28:07;;;;;;;;;;;;;;;;;;5017332;28;20281;-34
2022/08/16 12:30:33;;;;;;;;;;;;;;;;;;5017474;28;19960;-31
2022/08/16 12:33:00;;;;;;;;;;;;;;;;;;5016947;28;19943;-35
2022/08/16 12:35:26;;;;;;;;;;;;;;;;;;5016863;28;19909;-30
2022/08/16 12:37:52;;;;;;;;;;;;;;;;;;5017393;28;19925;-31
2022/08/16 12:40:19;;;;;;;;;;;;;;;;;;5017115;28;19909;-30
2022/08/16 12:42:45;;;;;;;;;;;;;;;;;;5016607;28;19918;-32
2022/08/16 12:45:11;;;;;;;;;;;;;;;;;;5016484;28;19925;-31
2022/08/16 12:50:22;;;;;;;;;;;;;;;;;;5016373;28;20020;-30
2022/08/16 12:52:48;;;;;;;;;;;;;;;;;;5016249;28;20356;-33
2022/08/16 12:55:14;;;;;;;;;;;;;;;;;;5016307;28;19910;-32
2022/08/16 12:57:40;;;;;;;;;;;;;;;;;;5016469;28;20007;-32
2022/08/16 13:00:06;;;;;;;;;;;;;;;;;;5016414;28;19909;-32
2022/08/16 13:02:32;;;;;;;;;;;;;;;;;;5016015;28;19917;-34
2022/08/16 13:04:58;;;;;;;;;;;;;;;;;;5016080;28;19952;-31
2022/08/16 13:07:24;;;;;;;;;;;;;;;;;;5016119;28;20344;-36
2022/08/16 13:09:57;;;;;;;;;;;;;;;;;;5016255;28;19918;-31
2022/08/16 13:12:25;;;;;;;;;;;;;;;;;;5016366;28;19914;-31
2022/08/16 13:14:51;;;;;;;;;;;;;;;;;;5015776;28;19924;-31
2022/08/16 13:17:18;;;;;;;;;;;;;;;;;;5016099;28;20321;-34
2022/08/16 13:19:44;;;;;;;;;;;;;;;;;;5015967;28;19996;-33
2022/08/16 13:22:10;;;;;;;;;;;;;;;;;;5015984;28;19925;-32
2022/08/16 13:24:36;;;;;;;;;;;;;;;;;;5015891;28;19909;-31
2022/08/16 13:27:02;;;;;;;;;;;;;;;;;;5015682;28;19917;-31
2022/08/16 13:29:28;;;;;;;;;;;;;;;;;;5015911;28;19984;-31
2022/08/16 13:31:55;;;;;;;;;;;;;;;;;;5016290;28;20353;-31
2022/08/16 13:34:21;;;;;;;;;;;;;;;;;;5015692;28;19913;-33
2022/08/16 13:36:47;;;;;;;;;;;;;;;;;;5015996;28;19920;-31
2022/08/16 13:39:13;;;;;;;;;;;;;;;;;;5015945;28;19923;-31
2022/08/16 13:41:39;;;;;;;;;;;;;;;;;;5015872;28;19917;-33
2022/08/16 13:44:06;;;;;;;;;;;;;;;;;;5015772;28;19936;-31
2022/08/16 13:46:32;;;;;;;;;;;;;;;;;;5016102;28;20065;-31
2022/08/16 13:48:58;;;;;;;;;;;;;;;;;;5015287;28;19917;-30
2022/08/16 13:51:24;;;;;;;;;;;;;;;;;;5015726;28;19917;-32
2022/08/16 13:53:50;;;;;;;;;;;;;;;;;;5015589;28;19984;-30
2022/08/16 13:56:17;;;;;;;;;;;;;;;;;;5015276;28;19921;-30
2022/08/16 13:58:43;;;;;;;;;;;;;;;;;;5015291;28;19975;-32
2022/08/16 14:01:10;;;;;;;;;;;;;;;;;;5015361;28;19918;-30
2022/08/16 14:03:36;;;;;;;;;;;;;;;;;;5019440;28;19925;-32
2022/08/16 14:06:02;;;;;;;;;;;;;;;;;;5029806;28;19933;-32
2022/08/16 14:08:28;;;;;;;;;;;;;;;;;;5015129;28;19913;-30
2022/08/16 14:10:54;;;;;;;;;;;;;;;;;;5015133;28;19917;-30
2022/08/16 14:13:20;;;;;;;;;;;;;;;;;;5015099;28;19913;-30
2022/08/16 14:15:46;;;;;;;;;;;;;;;;;;5015105;28;20009;-33
2022/08/16 14:18:12;;;;;;;;;;;;;;;;;;5015742;28;19917;-31
2022/08/16 14:20:38;;;;;;;;;;;;;;;;;;5015698;28;19913;-32
2022/08/16 14:23:05;;;;;;;;;;;;;;;;;;5015418;28;20332;-31
2022/08/16 14:25:31;;;;;;;;;;;;;;;;;;5015168;28;19953;-31
2022/08/16 14:27:57;;;;;;;;;;;;;;;;;;5015309;28;19949;-31
2022/08/16 14:30:23;;;;;;;;;;;;;;;;;;5015704;28;19991;-31
2022/08/16 14:32:49;;;;;;;;;;;;;;;;;;5015224;28;19925;-32
2022/08/16 14:35:15;;;;;;;;;;;;;;;;;;5015222;28;20345;-30
2022/08/16 14:37:41;;;;;;;;;;;;;;;;;;5014864;28;19917;-31
2022/08/16 14:40:08;;;;;;;;;;;;;;;;;;5018278;28;19967;-32
2022/08/16 14:42:34;;;;;;;;;;;;;;;;;;5018922;28;19921;-33
2022/08/16 14:45:00;;;;;;;;;;;;;;;;;;5018855;28;19924;-33
2022/08/16 14:47:26;;;;;;;;;;;;;;;;;;5018776;28;19913;-31
2022/08/16 14:49:52;;;;;;;;;;;;;;;;;;5019231;28;19918;-31
2022/08/16 14:52:18;;;;;;;;;;;;;;;;;;5018728;28;20308;-31
2022/08/16 14:54:44;;;;;;;;;;;;;;;;;;5018985;28;20009;-31
2022/08/16 14:57:10;;;;;;;;;;;;;;;;;;5018660;28;19924;-31
2022/08/16 14:59:36;;;;;;;;;;;;;;;;;;5018637;28;20372;-33
2022/08/16 15:02:03;;;;;;;;;;;;;;;;;;5018760;28;19928;-34
2022/08/16 15:04:29;;;;;;;;;;;;;;;;;;5018584;28;19913;-31
2022/08/16 15:06:57;;;;;;;;;;;;;;;;;;5018285;28;19929;-32
2022/08/16 15:09:23;;;;;;;;;;;;;;;;;;5018679;28;19948;-31
2022/08/16 15:11:49;;;;;;;;;;;;;;;;;;5017721;28;19943;-33
2022/08/16 15:14:15;;;;;;;;;;;;;;;;;;5018262;28;20322;-32
2022/08/16 15:16:41;;;;;;;;;;;;;;;;;;5018359;28;19914;-34
2022/08/16 15:19:06;;;;;;;;;;;;;;;;;;5018283;28;20012;-37
2022/08/16 15:21:32;;;;;;;;;;;;;;;;;;5018826;28;20336;-33
2022/08/16 15:23:59;;;;;;;;;;;;;;;;;;5018019;28;19921;-32
2022/08/16 15:26:24;;;;;;;;;;;;;;;;;;5018345;28;19920;-32
2022/08/16 15:28:50;;;;;;;;;;;;;;;;;;5018266;28;19917;-33
2022/08/16 15:31:16;;;;;;;;;;;;;;;;;;5018573;28;20317;-32
2022/08/16 15:33:42;;;;;;;;;;;;;;;;;;5016944;28;19996;-31
2022/08/16 15:36:10;;;;;;;;;;;;;;;;;;5017939;28;19913;-32
2022/08/16 15:38:36;;;;;;;;;;;;;;;;;;5017829;28;19913;-32
2022/08/16 15:41:02;;;;;;;;;;;;;;;;;;5017876;28;20272;-33
2022/08/16 15:43:30;;;;;;;;;;;;;;;;;;5017688;28;19909;-33
2022/08/16 15:48:40;;;;;;;;;;;;;;;;;;5017864;28;20244;-31
2022/08/16 15:51:07;;;;;;;;;;;;;;;;;;5016274;28;20000;-31
2022/08/16 15:53:33;;;;;;;;;;;;;;;;;;5017666;28;19918;-30
2022/08/16 15:55:59;;;;;;;;;;;;;;;;;;5017899;28;20389;-31
2022/08/16 15:58:25;;;;;;;;;;;;;;;;;;5017519;28;20276;-35
2022/08/16 16:00:51;;;;;;;;;;;;;;;;;;5017450;28;20371;-31
2022/08/16 16:03:17;;;;;;;;;;;;;;;;;;5016158;28;19913;-30
2022/08/16 16:05:43;;;;;;;;;;;;;;;;;;5016213;28;20299;-32
2022/08/16 16:08:09;;;;;;;;;;;;;;;;;;5017278;28;19953;-31
2022/08/16 16:10:38;;;;;;;;;;;;;;;;;;5017317;28;19991;-32
2022/08/16 16:13:05;;;;;;;;;;;;;;;;;;5017432;28;19964;-31
2022/08/16 16:15:31;;;;;;;;;;;;;;;;;;5017330;28;20008;-32
2022/08/16 16:17:57;;;;;;;;;;;;;;;;;;5016215;28;19956;-32
2022/08/16 16:20:23;;;;;;;;;;;;;;;;;;5017315;28;20297;-33
2022/08/16 16:22:49;;;;;;;;;;;;;;;;;;5017174;28;19968;-33
2022/08/16 16:25:15;;;;;;;;;;;;;;;;;;5016050;28;19910;-32
2022/08/16 16:27:41;;;;;;;;;;;;;;;;;;5017218;28;20306;-33
2022/08/16 16:30:08;;;;;;;;;;;;;;;;;;5017063;28;19914;-33
2022/08/16 16:32:34;;;;;;;;;;;;;;;;;;5017128;28;20260;-31
2022/08/16 16:35:00;;;;;;;;;;;;;;;;;;5017305;28;19956;-32
2022/08/16 16:37:26;;;;;;;;;;;;;;;;;;5016985;28;20349;-32
2022/08/16 16:39:52;;;;;;;;;;;;;;;;;;5016930;28;19922;-31
2022/08/16 16:42:18;;;;;;;;;;;;;;;;;;5016898;28;20225;-32
2022/08/16 16:44:44;;;;;;;;;;;;;;;;;;5016682;28;19959;-33
2022/08/16 16:47:10;;;;;;;;;;;;;;;;;;5015601;28;19913;-31